Kedon, Russia
Current Conditions -  °F | °C
As of 9:00 PM on Monday 26 Jan 2015 (Local Time) from UHMM Reporting Station
Overcast Overcast  
Wind Chill: -11°   Ceiling: 10000
Heat Index: -11°   Visibility: 6mi
Dew Point: -15°   Wind: 0mph
Humidity: 84%   Direction: NA
Pressure: 30.09"   Gusts: NA
Location:  64°N, 158.92°E
Report Text: UHMM 261000Z 00000MPS 9999 SCT036 OVC100 M24/M26 Q1019 NOSIGRMK QFE750 88410550
Loading
Personal Weather Stations






























Interactive Weather Map New forecast layout! Learn more

10-Day Weather Forecast

Advertisements
Track Severe Weather on mobile